Time;durP1;ratioP1;P1;durP2;ratioP2;P2;SDS_P1;SDS_P2;PMS_P1;PMS_P2;Temp;Humidity;BMP_temperature;BMP_pressure;BME280_temperature;BME280_humidity;BME280_pressure;Samples;Min_cycle;Max_cycle;Signal;HPM_P1;HPM_P2
2024/01/28 00:00:44;;;;;;;1.20;1.20;;;;;;;2.55;100.00;101806.31;5007226;28;20033;-65
2024/01/28 00:03:10;;;;;;;1.20;1.20;;;;;;;2.52;100.00;101814.09;5006873;28;20476;-65
2024/01/28 00:05:36;;;;;;;1.10;1.10;;;;;;;2.46;100.00;101811.31;4972738;28;20219;-65
2024/01/28 00:08:06;;;;;;;1.10;1.10;;;;;;;2.38;100.00;101818.09;5008158;28;20488;-65
2024/01/28 00:10:31;;;;;;;1.20;1.20;;;;;;;2.32;100.00;101817.03;5007106;28;20510;-65
2024/01/28 00:12:57;;;;;;;1.20;1.20;;;;;;;2.28;100.00;101813.41;5007676;28;20116;-65
2024/01/28 00:15:22;;;;;;;1.20;1.20;;;;;;;2.07;100.00;101776.03;5007915;28;20028;-65
2024/01/28 00:17:49;;;;;;;1.20;1.20;;;;;;;2.15;100.00;101798.16;4973194;28;20477;-65
2024/01/28 00:20:14;;;;;;;1.20;1.20;;;;;;;2.08;100.00;101796.19;4989043;28;20049;-65
2024/01/28 00:22:39;;;;;;;1.20;1.20;;;;;;;2.03;100.00;101797.78;4988668;28;20496;-65
2024/01/28 00:25:05;;;;;;;1.08;1.08;;;;;;;1.98;100.00;101791.50;4993889;28;20555;-65
2024/01/28 00:27:31;;;;;;;1.20;1.20;;;;;;;1.72;100.00;101758.34;5007251;28;20022;-65
2024/01/28 00:29:56;;;;;;;1.15;1.15;;;;;;;1.94;100.00;101786.13;4989154;28;20026;-65
2024/01/28 00:32:21;;;;;;;1.30;1.30;;;;;;;1.91;100.00;101779.03;5002439;28;20025;-65
2024/01/28 00:34:47;;;;;;;1.30;1.30;;;;;;;1.82;100.00;101781.38;5005266;28;20145;-65
2024/01/28 00:37:12;;;;;;;1.25;1.25;;;;;;;1.42;100.00;101725.06;5003664;28;20579;-65
2024/01/28 00:39:38;;;;;;;1.13;1.13;;;;;;;1.70;100.00;101790.63;4987350;28;20073;-65
2024/01/28 00:42:06;;;;;;;1.05;1.05;;;;;;;1.68;100.00;101787.94;5005134;28;20128;-65
2024/01/28 00:44:32;;;;;;;1.20;1.20;;;;;;;1.64;100.00;101786.06;5006145;28;20399;-65
2024/01/28 00:46:57;;;;;;;1.30;1.30;;;;;;;1.61;100.00;101785.97;5004792;28;20030;-65
2024/01/28 00:49:29;;;;;;;1.20;1.20;;;;;;;1.58;100.00;101780.66;5008050;28;20030;-64
2024/01/28 00:51:55;;;;;;;1.40;1.40;;;;;;;1.35;100.00;101755.44;5007842;28;20034;-65
2024/01/28 00:54:21;;;;;;;1.17;1.17;;;;;;;1.57;100.00;101784.09;5007186;28;20080;-64
2024/01/28 00:56:46;;;;;;;1.30;1.30;;;;;;;1.54;100.00;101786.63;5006322;28;20030;-65
2024/01/28 00:59:12;;;;;;;1.30;1.30;;;;;;;1.29;100.00;101734.25;5006601;28;20129;-65
2024/01/28 01:01:39;;;;;;;1.30;1.30;;;;;;;1.55;100.00;101779.66;5006619;28;20036;-65
2024/01/28 01:04:05;;;;;;;1.23;1.23;;;;;;;1.29;100.00;101742.09;4989103;28;20038;-64
2024/01/28 01:06:31;;;;;;;1.20;1.20;;;;;;;1.37;100.00;101751.09;5005827;28;20061;-65
2024/01/28 01:08:56;;;;;;;1.40;1.40;;;;;;;1.51;100.00;101772.50;5006949;28;20498;-65
2024/01/28 01:11:22;;;;;;;1.40;1.40;;;;;;;1.50;100.00;101776.88;5008645;28;20131;-65
2024/01/28 01:13:47;;;;;;;1.20;1.20;;;;;;;1.50;100.00;101776.88;4992242;28;20026;-64
2024/01/28 01:16:12;;;;;;;1.30;1.30;;;;;;;1.48;100.00;101775.94;4995683;28;20396;-65
2024/01/28 01:18:38;;;;;;;1.35;1.35;;;;;;;1.46;100.00;101772.38;5006858;28;20030;-65
2024/01/28 01:21:03;;;;;;;1.30;1.30;;;;;;;1.47;100.00;101773.28;5006578;28;20026;-65
2024/01/28 01:23:29;;;;;;;1.40;1.40;;;;;;;1.47;100.00;101776.78;5004952;28;20450;-65
2024/01/28 01:25:55;;;;;;;1.30;1.30;;;;;;;1.44;100.00;101774.06;5006354;28;20030;-65
2024/01/28 01:28:20;;;;;;;1.40;1.40;;;;;;;1.40;100.00;101777.41;4987200;28;20018;-65
2024/01/28 01:30:45;;;;;;;1.27;1.27;;;;;;;1.39;100.00;101775.63;5005507;28;20042;-65
2024/01/28 01:33:11;;;;;;;1.40;1.40;;;;;;;1.38;100.00;101773.88;5006821;28;20373;-65
2024/01/28 01:35:36;;;;;;;1.30;1.30;;;;;;;1.28;100.00;101762.22;5006349;28;20076;-65
2024/01/28 01:38:02;;;;;;;1.30;1.30;;;;;;;1.36;100.00;101778.16;5004368;28;20038;-65
2024/01/28 01:40:27;;;;;;;1.20;1.20;;;;;;;1.34;100.00;101780.75;5005660;28;20029;-65
2024/01/28 01:42:53;;;;;;;1.17;1.17;;;;;;;1.32;100.00;101774.56;5009213;28;20057;-65
2024/01/28 01:45:18;;;;;;;1.30;1.30;;;;;;;1.28;100.00;101772.69;5010689;28;20167;-65
2024/01/28 01:47:44;;;;;;;1.35;1.35;;;;;;;1.30;100.00;101763.13;5010174;28;20037;-65
2024/01/28 01:50:11;;;;;;;1.40;1.40;;;;;;;1.33;100.00;101767.59;5010605;28;20558;-65
2024/01/28 01:52:39;;;;;;;1.30;1.30;;;;;;;1.34;100.00;101761.50;5010042;28;20392;-65
2024/01/28 01:55:06;;;;;;;1.30;1.30;;;;;;;1.07;100.00;101702.97;5010905;28;20117;-65
2024/01/28 01:57:32;;;;;;;1.35;1.35;;;;;;;1.36;100.00;101757.19;5010301;28;20026;-65
2024/01/28 01:59:57;;;;;;;1.20;1.20;;;;;;;1.33;100.00;101750.09;5010354;28;20033;-65
2024/01/28 02:02:23;;;;;;;1.48;1.48;;;;;;;1.30;100.00;101744.78;5005678;28;20132;-65
2024/01/28 02:04:49;;;;;;;1.30;1.30;;;;;;;1.35;100.00;101745.81;5005071;28;20110;-64
2024/01/28 02:07:14;;;;;;;1.40;1.40;;;;;;;1.33;100.00;101757.09;4989281;28;20062;-65
2024/01/28 02:09:40;;;;;;;1.27;1.27;;;;;;;1.28;100.00;101748.19;4990444;28;20064;-64
2024/01/28 02:12:06;;;;;;;1.35;1.35;;;;;;;1.26;100.00;101742.00;4989691;28;20763;-65
2024/01/28 02:14:31;;;;;;;1.40;1.40;;;;;;;1.20;100.00;101754.94;4990453;28;20554;-64
2024/01/28 02:17:01;;;;;;;1.33;1.33;;;;;;;1.12;100.00;101753.78;4989271;28;20030;-65
2024/01/28 02:19:27;;;;;;;1.20;1.20;;;;;;;1.08;100.00;101754.53;4988782;28;20026;-65
2024/01/28 02:21:53;;;;;;;1.40;1.40;;;;;;;1.04;100.00;101752.63;4988723;28;20061;-65
2024/01/28 02:24:19;;;;;;;1.30;1.30;;;;;;;0.99;100.00;101749.84;4988517;28;20030;-65
2024/01/28 02:26:44;;;;;;;1.30;1.30;;;;;;;0.76;100.00;101718.50;4988988;28;20030;-64
2024/01/28 02:29:10;;;;;;;1.40;1.40;;;;;;;0.97;100.00;101751.53;4988256;28;20030;-65
2024/01/28 02:31:35;;;;;;;1.20;1.20;;;;;;;0.96;100.00;101749.75;4971180;28;20026;-64
2024/01/28 02:34:01;;;;;;;1.50;1.50;;;;;;;0.94;100.00;101740.97;4970342;28;20042;-65
2024/01/28 02:36:28;;;;;;;1.40;1.40;;;;;;;0.92;100.00;101740.00;4974544;28;20487;-65
2024/01/28 02:38:58;;;;;;;1.20;1.20;;;;;;;0.91;100.00;101735.63;4973689;28;20018;-65
2024/01/28 02:41:24;;;;;;;1.33;1.33;;;;;;;0.90;100.00;101741.72;4988523;28;20125;-65
2024/01/28 02:43:49;;;;;;;1.30;1.30;;;;;;;0.86;100.00;101738.91;4970371;28;20197;-65
2024/01/28 02:46:15;;;;;;;1.50;1.50;;;;;;;0.90;100.00;101741.72;4988954;28;20038;-65
2024/01/28 02:48:40;;;;;;;1.42;1.42;;;;;;;0.93;100.00;101739.19;4989368;28;20459;-65
2024/01/28 02:51:06;;;;;;;1.38;1.38;;;;;;;0.91;100.00;101734.72;4988523;28;20034;-65
2024/01/28 02:53:32;;;;;;;1.33;1.33;;;;;;;0.91;100.00;101727.75;4988780;28;20500;-65
2024/01/28 02:55:59;;;;;;;1.40;1.40;;;;;;;0.68;100.00;101696.41;4991145;28;20477;-65
2024/01/28 02:58:30;;;;;;;1.50;1.50;;;;;;;0.84;100.00;101724.91;4989927;28;20034;-65
2024/01/28 03:00:56;;;;;;;1.38;1.38;;;;;;;0.82;100.00;101729.19;4991078;28;20026;-64
2024/01/28 03:03:21;;;;;;;1.30;1.30;;;;;;;0.79;100.00;101734.34;4991239;28;20462;-65
2024/01/28 03:05:46;;;;;;;1.30;1.30;;;;;;;0.75;100.00;101725.47;4990254;28;20030;-65
2024/01/28 03:08:12;;;;;;;1.50;1.50;;;;;;;0.75;100.00;101724.56;5006726;28;20537;-64
2024/01/28 03:10:37;;;;;;;1.50;1.50;;;;;;;0.72;100.00;101727.09;5010805;28;20034;-64
2024/01/28 03:13:03;;;;;;;1.40;1.40;;;;;;;0.71;100.00;101720.09;4991635;28;20739;-64
2024/01/28 03:15:29;;;;;;;1.50;1.50;;;;;;;0.45;100.00;101685.16;5007829;28;20030;-64
2024/01/28 03:17:54;;;;;;;1.55;1.55;;;;;;;0.65;100.00;101725.09;5006698;28;20037;-65
2024/01/28 03:20:20;;;;;;;1.50;1.50;;;;;;;0.37;100.00;101676.16;4990025;28;20512;-65
2024/01/28 03:22:45;;;;;;;1.40;1.40;;;;;;;0.64;100.00;101732.09;5006544;28;20133;-65
2024/01/28 03:25:12;;;;;;;1.40;1.40;;;;;;;0.65;100.00;101725.09;5007414;28;20033;-64
2024/01/28 03:27:38;;;;;;;1.60;1.60;;;;;;;0.67;100.00;101731.28;5005747;28;20599;-65
2024/01/28 03:30:05;;;;;;;1.50;1.50;;;;;;;0.65;100.00;101731.25;5008639;28;20037;-65
2024/01/28 03:32:33;;;;;;;1.50;1.50;;;;;;;0.65;100.00;101732.94;4990742;28;20068;-65
2024/01/28 03:35:00;;;;;;;1.45;1.45;;;;;;;0.66;100.00;101726.91;5008400;28;20484;-64
2024/01/28 03:37:26;;;;;;;1.45;1.45;;;;;;;0.41;100.00;101687.63;5008969;28;20030;-64
2024/01/28 03:39:52;;;;;;;1.40;1.40;;;;;;;0.68;100.00;101730.44;5009690;28;20030;-64
2024/01/28 03:42:17;;;;;;;1.30;1.30;;;;;;;0.73;100.00;101729.75;5009504;28;20081;-64
2024/01/28 03:44:42;;;;;;;1.40;1.40;;;;;;;0.70;100.00;101723.53;5009842;28;20444;-64
2024/01/28 03:47:08;;;;;;;1.30;1.30;;;;;;;0.71;100.00;101720.97;5008975;28;20075;-64
2024/01/28 03:49:33;;;;;;;1.33;1.33;;;;;;;0.71;100.00;101725.34;5007436;28;20399;-64
2024/01/28 03:51:59;;;;;;;1.40;1.40;;;;;;;0.48;100.00;101685.25;5008032;28;20033;-64
2024/01/28 03:54:24;;;;;;;1.50;1.50;;;;;;;0.37;100.00;101659.56;5007281;28;20037;-64
2024/01/28 03:56:49;;;;;;;1.60;1.60;;;;;;;0.72;100.00;101719.25;5007676;28;20118;-64
2024/01/28 03:59:15;;;;;;;1.50;1.50;;;;;;;0.70;100.00;101723.53;4990279;28;20522;-64
2024/01/28 04:01:40;;;;;;;1.40;1.40;;;;;;;0.67;100.00;101723.44;5005772;28;20116;-65
2024/01/28 04:04:06;;;;;;;1.45;1.45;;;;;;;0.39;100.00;101677.09;5008720;28;20472;-64
2024/01/28 04:06:31;;;;;;;1.40;1.40;;;;;;;0.64;100.00;101731.19;5006236;28;20061;-64
2024/01/28 04:08:57;;;;;;;1.50;1.50;;;;;;;0.58;100.00;101729.25;5008459;28;20036;-64
2024/01/28 04:11:26;;;;;;;1.40;1.40;;;;;;;0.56;100.00;101730.03;5008721;28;20048;-64
2024/01/28 04:13:55;;;;;;;1.30;1.30;;;;;;;0.23;100.00;101693.06;5008547;28;20431;-65
2024/01/28 04:16:21;;;;;;;1.50;1.50;;;;;;;0.49;100.00;101730.66;5007043;28;20117;-64
2024/01/28 04:18:47;;;;;;;1.50;1.50;;;;;;;0.47;100.00;101734.94;5007269;28;20148;-65
2024/01/28 04:21:12;;;;;;;1.60;1.60;;;;;;;-0.01;100.00;101659.13;5007291;28;20491;-64
2024/01/28 04:23:39;;;;;;;1.52;1.52;;;;;;;0.43;100.00;101726.09;5006547;28;20054;-64
2024/01/28 04:26:05;;;;;;;1.60;1.60;;;;;;;0.42;100.00;101726.94;5006982;28;20041;-64
2024/01/28 04:28:30;;;;;;;1.60;1.60;;;;;;;0.43;100.00;101726.09;5006336;28;20025;-64
2024/01/28 04:30:56;;;;;;;1.50;1.50;;;;;;;0.44;100.00;101732.22;4989597;28;20034;-64
2024/01/28 04:33:21;;;;;;;1.50;1.50;;;;;;;0.41;100.00;101732.13;5006370;28;20025;-64
2024/01/28 04:35:47;;;;;;;1.40;1.40;;;;;;;0.41;100.00;101739.97;5005247;28;20037;-64
2024/01/28 04:38:12;;;;;;;1.50;1.50;;;;;;;0.40;100.00;101732.94;5005496;28;20022;-64
2024/01/28 04:40:38;;;;;;;1.40;1.40;;;;;;;0.39;100.00;101741.63;5006582;28;20467;-64
2024/01/28 04:43:03;;;;;;;1.50;1.50;;;;;;;0.11;100.00;101695.28;5005355;28;20128;-64
2024/01/28 04:45:29;;;;;;;1.50;1.50;;;;;;;0.33;100.00;101736.19;5006844;28;20387;-64
2024/01/28 04:47:54;;;;;;;1.33;1.33;;;;;;;0.33;100.00;101744.03;5007699;28;20097;-64
2024/01/28 04:50:19;;;;;;;1.25;1.25;;;;;;;0.27;100.00;101733.31;5007460;28;20391;-64
2024/01/28 04:52:45;;;;;;;1.50;1.50;;;;;;;0.30;100.00;101736.09;5009034;28;20029;-64
2024/01/28 04:55:10;;;;;;;1.50;1.50;;;;;;;0.28;100.00;101733.38;5007872;28;20410;-64
2024/01/28 04:57:36;;;;;;;1.42;1.42;;;;;;;0.03;100.00;101696.75;5008562;28;20030;-64
2024/01/28 05:00:01;;;;;;;1.40;1.40;;;;;;;0.28;100.00;101722.06;5008168;28;20033;-64
2024/01/28 05:02:26;;;;;;;1.50;1.50;;;;;;;0.28;100.00;101733.38;5008465;28;20041;-65
2024/01/28 05:04:52;;;;;;;1.50;1.50;;;;;;;0.32;100.00;101734.38;5007820;28;20034;-64
2024/01/28 05:07:17;;;;;;;1.38;1.38;;;;;;;0.09;100.00;101693.44;5007903;28;20596;-64
2024/01/28 05:09:43;;;;;;;1.40;1.40;;;;;;;0.29;100.00;101729.06;5006460;28;20030;-64
2024/01/28 05:12:09;;;;;;;1.60;1.60;;;;;;;0.28;100.00;101729.91;5003958;28;20080;-64
2024/01/28 05:14:34;;;;;;;1.40;1.40;;;;;;;0.27;100.00;101720.25;4989907;28;20033;-64
2024/01/28 05:17:00;;;;;;;1.50;1.50;;;;;;;0.25;100.00;101714.09;4987842;28;20045;-64
2024/01/28 05:19:26;;;;;;;1.50;1.50;;;;;;;0.26;100.00;101715.88;5009539;28;20021;-64
2024/01/28 05:21:52;;;;;;;1.30;1.30;;;;;;;0.26;100.00;101710.63;4980200;28;20412;-64
2024/01/28 05:24:17;;;;;;;1.45;1.45;;;;;;;0.20;100.00;101703.44;5006535;28;20037;-64
2024/01/28 05:26:42;;;;;;;1.50;1.50;;;;;;;-0.01;100.00;101666.97;5010502;28;20112;-64
2024/01/28 05:29:08;;;;;;;1.30;1.30;;;;;;;0.26;100.00;101697.56;4992242;28;20592;-64
2024/01/28 05:31:33;;;;;;;1.40;1.40;;;;;;;0.00;100.00;101667.88;5012242;28;20029;-64
2024/01/28 05:34:00;;;;;;;1.50;1.50;;;;;;;0.21;100.00;101701.72;5012110;28;20060;-64
2024/01/28 05:36:26;;;;;;;1.50;1.50;;;;;;;0.21;100.00;101693.88;5011487;28;20787;-64
2024/01/28 05:38:54;;;;;;;1.70;1.70;;;;;;;0.21;100.00;101702.63;5012134;28;20121;-64
2024/01/28 05:41:19;;;;;;;1.52;1.52;;;;;;;0.00;100.00;101668.72;5011548;28;20404;-64
2024/01/28 05:43:45;;;;;;;1.50;1.50;;;;;;;-0.11;100.00;101654.38;5010894;28;20026;-64
2024/01/28 05:46:10;;;;;;;1.60;1.60;;;;;;;0.17;100.00;101700.72;4990309;28;20018;-64
2024/01/28 05:48:35;;;;;;;1.58;1.58;;;;;;;0.18;100.00;101705.13;5011169;28;20109;-64
2024/01/28 05:51:02;;;;;;;1.50;1.50;;;;;;;-0.04;100.00;101663.34;4994548;28;20037;-64
2024/01/28 05:53:27;;;;;;;1.55;1.55;;;;;;;0.18;100.00;101696.41;5011174;28;20030;-64
2024/01/28 05:55:52;;;;;;;1.70;1.70;;;;;;;0.15;100.00;101683.22;5012331;28;20079;-64
2024/01/28 05:58:20;;;;;;;1.60;1.60;;;;;;;0.14;100.00;101681.41;5009355;28;20513;-64
2024/01/28 06:00:46;;;;;;;1.40;1.40;;;;;;;0.11;100.00;101686.53;5009987;28;20112;-63
2024/01/28 06:03:11;;;;;;;1.40;1.40;;;;;;;0.08;100.00;101692.56;5010770;28;20029;-63
2024/01/28 06:05:37;;;;;;;1.40;1.40;;;;;;;-0.17;100.00;101659.41;5009464;28;20025;-64
2024/01/28 06:08:02;;;;;;;1.50;1.50;;;;;;;0.05;100.00;101699.41;5009243;28;20050;-64
2024/01/28 06:10:28;;;;;;;1.50;1.50;;;;;;;0.05;100.00;101702.03;5010021;28;20121;-64
2024/01/28 06:12:53;;;;;;;1.60;1.60;;;;;;;0.03;100.00;101700.22;5009300;28;20114;-64
2024/01/28 06:15:19;;;;;;;1.60;1.60;;;;;;;0.00;100.00;101704.47;5007257;28;20037;-64
2024/01/28 06:17:44;;;;;;;1.50;1.50;;;;;;;-0.01;100.00;101714.03;4992945;28;20033;-64
2024/01/28 06:20:10;;;;;;;1.50;1.50;;;;;;;-0.04;100.00;101713.94;5009211;28;20125;-64
2024/01/28 06:22:36;;;;;;;1.45;1.45;;;;;;;-0.31;100.00;101680.63;5009921;28;20033;-64
2024/01/28 06:25:02;;;;;;;1.50;1.50;;;;;;;-0.10;100.00;101729.38;5009155;28;20022;-64
2024/01/28 06:27:28;;;;;;;1.70;1.70;;;;;;;-0.34;100.00;101675.28;5009275;28;20740;-64
2024/01/28 06:29:54;;;;;;;1.60;1.60;;;;;;;-0.12;100.00;101714.47;5008328;28;20037;-64
2024/01/28 06:32:21;;;;;;;1.48;1.48;;;;;;;-0.14;100.00;101711.81;4999664;28;20030;-64
2024/01/28 06:34:47;;;;;;;1.70;1.70;;;;;;;-0.15;100.00;101707.38;5009517;28;20084;-64
2024/01/28 06:37:13;;;;;;;1.50;1.50;;;;;;;-0.16;100.00;101702.09;5010701;28;20026;-64
2024/01/28 06:39:38;;;;;;;1.58;1.58;;;;;;;-0.11;100.00;101709.31;5010865;28;20503;-65
2024/01/28 06:42:04;;;;;;;1.40;1.40;;;;;;;-0.31;100.00;101670.16;5009713;28;20041;-64
2024/01/28 06:44:32;;;;;;;1.60;1.60;;;;;;;-0.01;100.00;101706.19;5009545;28;20028;-65
2024/01/28 06:46:58;;;;;;;1.70;1.70;;;;;;;0.02;100.00;101702.78;5010498;28;20601;-64
2024/01/28 06:49:23;;;;;;;1.70;1.70;;;;;;;0.03;100.00;101706.28;4994253;28;20053;-64
2024/01/28 06:51:49;;;;;;;1.48;1.48;;;;;;;0.00;100.00;101710.56;5009691;28;20363;-64
2024/01/28 06:54:14;;;;;;;1.63;1.63;;;;;;;-0.27;100.00;101659.91;5008473;28;20030;-64
2024/01/28 06:56:40;;;;;;;1.60;1.60;;;;;;;-0.31;100.00;101658.00;5007906;28;20041;-64
2024/01/28 06:59:06;;;;;;;1.40;1.40;;;;;;;0.01;100.00;101701.00;5009251;28;20085;-64
2024/01/28 07:01:32;;;;;;;1.48;1.48;;;;;;;-0.30;100.00;101649.31;5006468;28;20692;-64
2024/01/28 07:03:57;;;;;;;1.70;1.70;;;;;;;-0.03;100.00;101694.78;5007007;28;20037;-64
2024/01/28 07:06:22;;;;;;;1.60;1.60;;;;;;;-0.03;100.00;101705.25;4987472;28;20054;-64
2024/01/28 07:08:48;;;;;;;1.70;1.70;;;;;;;-0.27;100.00;101661.63;4988305;28;20734;-64
2024/01/28 07:11:13;;;;;;;1.70;1.70;;;;;;;-0.02;100.00;101698.28;4987366;28;20041;-64
2024/01/28 07:13:40;;;;;;;1.55;1.55;;;;;;;0.02;100.00;101701.91;4986752;28;20582;-64
2024/01/28 07:16:06;;;;;;;1.70;1.70;;;;;;;-0.01;100.00;101700.06;4989778;28;21176;-64
2024/01/28 07:18:31;;;;;;;1.45;1.45;;;;;;;-0.01;100.00;101695.72;4971970;28;20045;-64
2024/01/28 07:20:57;;;;;;;1.60;1.60;;;;;;;-0.02;100.00;101699.16;4980565;28;20026;-65
2024/01/28 07:23:22;;;;;;;1.52;1.52;;;;;;;0.00;100.00;101704.47;4989115;28;20085;-64
2024/01/28 07:25:48;;;;;;;1.52;1.52;;;;;;;0.08;100.00;101702.13;4987978;28;20485;-64
2024/01/28 07:28:13;;;;;;;1.60;1.60;;;;;;;0.12;100.00;101709.22;4989017;28;20034;-64
2024/01/28 07:30:38;;;;;;;1.60;1.60;;;;;;;-0.20;100.00;101627.91;4989288;28;20030;-65
2024/01/28 07:33:07;;;;;;;1.60;1.60;;;;;;;0.27;100.00;101715.91;4989497;28;20105;-64
2024/01/28 07:35:34;;;;;;;1.65;1.65;;;;;;;0.48;100.00;101713.19;4989093;28;20018;-64
2024/01/28 07:37:59;;;;;;;1.77;1.77;;;;;;;0.76;100.00;101714.16;4990295;28;20045;-64
2024/01/28 07:40:24;;;;;;;1.40;1.40;;;;;;;1.01;100.00;101715.84;4988393;28;20030;-64
2024/01/28 07:42:50;;;;;;;1.60;1.60;;;;;;;1.08;100.00;101710.88;4988374;28;20595;-64
2024/01/28 07:45:15;;;;;;;1.30;1.30;;;;;;;1.18;100.00;101705.09;4989142;28;20115;-65
2024/01/28 07:47:41;;;;;;;1.50;1.50;;;;;;;1.37;100.00;101705.66;4988301;28;20030;-64
2024/01/28 07:50:06;;;;;;;1.40;1.40;;;;;;;1.55;100.00;101707.09;4988960;28;20033;-65
2024/01/28 07:52:32;;;;;;;1.40;1.40;;;;;;;1.65;100.00;101709.16;4986622;28;20033;-64
2024/01/28 07:54:57;;;;;;;1.35;1.35;;;;;;;1.69;100.00;101695.31;4987438;28;20030;-65
2024/01/28 07:57:23;;;;;;;1.42;1.42;;;;;;;1.93;100.00;101716.13;4967579;28;20034;-64
2024/01/28 07:59:49;;;;;;;1.45;1.45;;;;;;;2.38;100.00;101718.31;4968901;28;20053;-64
2024/01/28 08:02:15;;;;;;;1.40;1.40;;;;;;;3.10;100.00;101714.06;4969702;28;20382;-64
2024/01/28 08:04:41;;;;;;;1.10;1.10;;;;;;;4.16;100.00;101719.97;4967225;28;20041;-64
2024/01/28 08:07:06;;;;;;;1.10;1.10;;;;;;;4.88;100.00;101650.19;4986025;28;20481;-64
2024/01/28 08:09:33;;;;;;;1.08;1.08;;;;;;;5.91;100.00;101704.50;4989856;28;20026;-64
2024/01/28 08:11:59;;;;;;;0.93;0.93;;;;;;;7.08;100.00;101700.50;5007721;28;20021;-64
2024/01/28 08:14:27;;;;;;;1.10;1.10;;;;;;;8.45;100.00;101703.09;5008558;28;20034;-64
2024/01/28 08:16:54;;;;;;;0.90;0.90;;;;;;;9.82;100.00;101703.97;5009242;28;20049;-64
2024/01/28 08:19:19;;;;;;;0.90;0.90;;;;;;;10.88;94.12;101696.41;4991423;28;20548;-64
2024/01/28 08:21:45;;;;;;;0.70;0.70;;;;;;;12.00;81.24;101692.69;5008177;28;20116;-64
2024/01/28 08:24:10;;;;;;;0.73;0.73;;;;;;;13.04;71.27;101702.84;5009109;28;20391;-64
2024/01/28 08:26:36;;;;;;;0.80;0.80;;;;;;;13.95;61.04;101707.44;5008270;28;20326;-64
2024/01/28 08:29:02;;;;;;;0.65;0.65;;;;;;;14.60;50.58;101700.75;5007885;28;20506;-64
2024/01/28 08:31:28;;;;;;;0.70;0.70;;;;;;;14.90;47.50;101702.72;4987515;28;20431;-64
2024/01/28 08:33:54;;;;;;;0.63;0.63;;;;;;;15.28;47.29;101698.22;4988309;28;20071;-64
2024/01/28 08:36:19;;;;;;;0.60;0.60;;;;;;;15.65;45.21;101680.28;4987345;28;20026;-64
2024/01/28 08:38:45;;;;;;;0.60;0.60;;;;;;;16.16;45.03;101706.59;5006286;28;20099;-64
2024/01/28 08:41:11;;;;;;;0.60;0.60;;;;;;;15.99;44.41;101707.06;5006345;28;20068;-64
2024/01/28 08:43:37;;;;;;;0.60;0.60;;;;;;;14.52;43.70;101708.97;4979298;28;20034;-65
2024/01/28 08:46:06;;;;;;;0.60;0.60;;;;;;;12.36;46.90;101690.44;4990010;28;20503;-64
2024/01/28 08:48:31;;;;;;;0.60;0.60;;;;;;;11.40;50.54;101723.50;5006090;28;20389;-65
2024/01/28 08:50:57;;;;;;;0.70;0.70;;;;;;;10.40;52.59;101720.63;5007580;28;20030;-64
2024/01/28 08:53:22;;;;;;;0.60;0.60;;;;;;;10.00;58.17;101721.66;5007090;28;20117;-64
2024/01/28 08:55:48;;;;;;;0.75;0.75;;;;;;;11.26;57.72;101709.41;5005698;28;20037;-64
2024/01/28 08:58:13;;;;;;;0.70;0.70;;;;;;;12.68;52.52;101714.03;4990877;28;20144;-64
2024/01/28 09:00:39;;;;;;;0.70;0.70;;;;;;;13.86;48.29;101712.97;4988446;28;20036;-64
2024/01/28 09:03:05;;;;;;;0.60;0.60;;;;;;;14.80;45.80;101714.56;5006975;28;20476;-64
2024/01/28 09:05:31;;;;;;;0.68;0.68;;;;;;;15.83;43.96;101701.22;4989336;28;20037;-65
2024/01/28 09:07:56;;;;;;;0.60;0.60;;;;;;;16.02;41.34;101684.63;5006465;28;20416;-64
2024/01/28 09:10:23;;;;;;;0.70;0.70;;;;;;;16.25;41.11;101709.00;5006862;28;20205;-65
2024/01/28 09:12:48;;;;;;;0.60;0.60;;;;;;;16.30;42.42;101707.06;4999032;28;20118;-65
2024/01/28 09:15:14;;;;;;;0.60;0.60;;;;;;;16.71;42.01;101706.75;4987482;28;20097;-65
2024/01/28 09:17:41;;;;;;;0.60;0.60;;;;;;;16.80;41.13;101693.03;5004683;28;20511;-65
2024/01/28 09:20:07;;;;;;;0.60;0.60;;;;;;;16.65;39.87;101715.00;5006102;28;20045;-65
2024/01/28 09:22:35;;;;;;;0.60;0.60;;;;;;;17.04;40.77;101705.69;5007801;28;20029;-65
2024/01/28 09:25:01;;;;;;;0.60;0.60;;;;;;;17.60;39.69;101714.59;5007426;28;20476;-65
2024/01/28 09:27:27;;;;;;;0.60;0.60;;;;;;;17.78;39.26;101704.06;5008175;28;20047;-65
2024/01/28 09:29:53;;;;;;;0.60;0.60;;;;;;;18.37;37.62;101710.84;5008213;28;20143;-65
2024/01/28 09:32:18;;;;;;;0.60;0.60;;;;;;;18.36;38.75;101703.72;5007160;28;20560;-65
2024/01/28 09:34:45;;;;;;;0.57;0.57;;;;;;;18.43;37.68;101679.25;4990753;28;20144;-65
2024/01/28 09:37:11;;;;;;;0.60;0.60;;;;;;;19.01;36.51;101703.00;5007146;28;20029;-65
2024/01/28 09:39:36;;;;;;;0.50;0.50;;;;;;;18.72;37.21;101701.44;5008301;28;20460;-65
2024/01/28 09:42:22;;;;;;;0.60;0.60;;;;;;;18.10;37.78;101706.47;5005753;28;20029;-66
2024/01/28 09:44:49;;;;;;;0.50;0.50;;;;;;;18.32;38.14;101702.06;4992286;28;20106;-65
2024/01/28 09:47:17;;;;;;;0.50;0.50;;;;;;;18.61;37.08;101686.63;5003618;28;20911;-65
2024/01/28 09:49:44;;;;;;;0.50;0.50;;;;;;;18.70;37.21;101683.59;5005299;28;20042;-65
2024/01/28 09:52:10;;;;;;;0.50;0.50;;;;;;;18.52;36.70;101708.56;5004850;28;20485;-65
2024/01/28 09:54:45;;;;;;;0.60;0.60;;;;;;;18.26;38.69;101713.06;5005793;28;20079;-66
2024/01/28 09:57:11;;;;;;;0.50;0.50;;;;;;;18.02;38.83;101705.88;4986704;28;20156;-65
2024/01/28 09:59:37;;;;;;;0.50;0.50;;;;;;;17.91;38.54;101710.78;5005615;28;20617;-65
2024/01/28 10:02:04;;;;;;;0.50;0.50;;;;;;;17.99;38.22;101705.13;5005708;28;20034;-65
2024/01/28 10:04:30;;;;;;;0.50;0.50;;;;;;;17.95;38.85;101712.44;5008540;28;20488;-65
2024/01/28 10:06:57;;;;;;;0.50;0.50;;;;;;;17.52;39.77;101717.56;5009436;28;20604;-65
2024/01/28 10:09:27;;;;;;;0.60;0.60;;;;;;;17.77;39.21;101702.31;4983550;28;20572;-66
2024/01/28 10:11:52;;;;;;;0.60;0.60;;;;;;;17.70;39.74;101700.78;4993845;28;20034;-65
2024/01/28 10:14:18;;;;;;;0.50;0.50;;;;;;;17.34;39.70;101642.81;5008445;28;20033;-65
2024/01/28 10:16:48;;;;;;;0.50;0.50;;;;;;;17.68;40.58;101702.63;5006236;28;20478;-66
2024/01/28 10:19:14;;;;;;;0.60;0.60;;;;;;;18.08;38.64;101697.59;5009739;28;20026;-65
2024/01/28 10:21:43;;;;;;;0.50;0.50;;;;;;;17.88;39.66;101689.34;5008321;28;20080;-66
2024/01/28 10:24:10;;;;;;;0.60;0.60;;;;;;;17.71;38.94;101696.28;5010459;28;20026;-65
2024/01/28 10:26:35;;;;;;;0.50;0.50;;;;;;;17.59;39.17;101654.53;5009820;28;20079;-66
2024/01/28 10:29:01;;;;;;;0.50;0.50;;;;;;;17.68;39.93;101686.47;5011883;28;20025;-66
2024/01/28 10:31:26;;;;;;;0.50;0.50;;;;;;;17.60;40.02;101661.66;5011556;28;20033;-66
2024/01/28 10:33:52;;;;;;;0.50;0.50;;;;;;;17.30;40.72;101678.81;5010415;28;20060;-66
2024/01/28 10:36:17;;;;;;;0.50;0.50;;;;;;;17.22;41.77;101678.19;5011259;28;20036;-66
2024/01/28 10:38:45;;;;;;;0.50;0.50;;;;;;;17.19;42.34;101681.00;5006449;28;20046;-66
2024/01/28 10:41:19;;;;;;;0.50;0.50;;;;;;;17.12;41.27;101674.03;5010655;28;20033;-66
2024/01/28 10:43:57;;;;;;;0.50;0.50;;;;;;;17.01;42.11;101671.72;5009188;28;20038;-66
2024/01/28 10:46:32;;;;;;;0.50;0.50;;;;;;;16.78;43.04;101668.00;5009108;28;20057;-66
2024/01/28 10:49:05;;;;;;;0.50;0.50;;;;;;;16.79;42.24;101667.06;5009407;28;20439;-66
2024/01/28 10:51:33;;;;;;;0.50;0.50;;;;;;;16.80;42.03;101671.53;5007902;28;20496;-66
2024/01/28 10:54:01;;;;;;;0.50;0.50;;;;;;;16.73;43.06;101670.84;5009086;28;20056;-66
2024/01/28 10:56:27;;;;;;;0.43;0.43;;;;;;;16.56;43.70;101666.91;5003361;28;20653;-66
2024/01/28 10:58:52;;;;;;;0.40;0.40;;;;;;;16.58;44.53;101665.06;5010323;28;20084;-66
2024/01/28 11:01:18;;;;;;;0.40;0.40;;;;;;;16.61;43.30;101663.16;5010192;28;20033;-67
2024/01/28 11:03:45;;;;;;;0.40;0.40;;;;;;;16.77;42.85;101659.06;5009692;28;20459;-68
2024/01/28 11:06:10;;;;;;;0.50;0.50;;;;;;;16.78;43.29;101660.84;5010700;28;20062;-69
2024/01/28 11:08:36;;;;;;;0.40;0.40;;;;;;;16.72;43.99;101663.69;5008613;28;20022;-69
2024/01/28 11:11:01;;;;;;;0.40;0.40;;;;;;;16.52;43.89;101639.25;5010548;28;20431;-71
2024/01/28 11:13:27;;;;;;;0.40;0.40;;;;;;;17.04;43.25;101643.84;4996168;28;20026;-68
2024/01/28 11:15:54;;;;;;;0.40;0.40;;;;;;;16.74;43.70;101644.84;5003197;28;20021;-68
2024/01/28 11:18:28;;;;;;;0.40;0.40;;;;;;;16.76;45.10;101641.19;5007823;28;20084;-68